Durham — WDF3868 — position and weather

sailwx.info

Track history (hours):
 
Tides and Currents Weather Stations Pressure Air Temp Water Temp Dewpoint Dewpoint Depression Visibility Wind Speed Wind Dir Waves Ship Positions

Durham

Owner: KEN'S BOOMING & BOAT SERVICE, INC., BAYONNE, NJ. More information available from US FCC via Universal Licensing System and Coast Guard Vessel Documentation Center.

Last reported at 2018-Feb-19 20:14 UTC. Time now 2018-Feb-19 23:53 UTC.
Position N 40°39' W 074°07'.

Length 18 m.

MMSI: 367444950.

Date/timePositionNaut miles runAvg speedWind from/ knotsBaromVisibWave heightAir tempDewpointWater temp
2018-Feb-19 20:14N 40°39' W 074°07'0 0.0
2018-Feb-19 19:07N 40°39' W 074°07'0 0.0
2018-Feb-19 19:01N 40°39' W 074°07'0 0.0
2018-Feb-19 16:24N 40°39' W 074°07'0 0.0
2018-Feb-17 21:21N 40°39' W 074°07'0 0.0
2018-Feb-17 20:59N 40°39' W 074°07'0 0.0
2018-Feb-17 13:42N 40°39' W 074°07'0 0.0
2018-Feb-17 13:29N 40°39' W 074°07'0 0.0
2018-Feb-17 13:00N 40°39' W 074°07'0 0.0
2018-Feb-17 12:30N 40°39' W 074°07'0 0.0
2018-Feb-16 22:26N 40°39' W 074°07'0 0.0
2018-Feb-16 22:00N 40°39' W 074°07'0 0.0
2018-Feb-16 16:12N 40°39' W 074°07'1 2.9
2018-Feb-16 16:00N 40°39' W 074°06'3 5.6
2018-Feb-16 15:28N 40°37' W 074°03'4 7.7
2018-Feb-16 15:00N 40°34' W 074°00'4 8.0
2018-Feb-16 14:30N 40°34' W 073°55'5 1.6
2018-Feb-16 11:26N 40°35' W 074°02'2 4.4
2018-Feb-16 11:00N 40°37' W 074°03'2 4.7
2018-Feb-16 10:29N 40°39' W 074°04'2 4.7
2018-Feb-16 10:00N 40°39' W 074°07'2 4.4
2018-Feb-16 09:30N 40°39' W 074°10'1 2.5
2018-Feb-16 09:00N 40°38' W 074°12'2 3.9
2018-Feb-16 08:30N 40°39' W 074°09'1 0.1
2018-Feb-15 15:15N 40°39' W 074°07'0 0.0
2018-Feb-15 14:55N 40°39' W 074°07'2 5.3
2018-Feb-15 14:30N 40°41' W 074°09'1 1.0
2018-Feb-15 14:00N 40°40' W 074°08'3 6.6
2018-Feb-15 13:30N 40°38' W 074°12'5 1.1
2018-Feb-15 08:32N 40°33' W 074°14'1 8.6
2018-Feb-15 08:27N 40°33' W 074°13'5 8.8
2018-Feb-15 07:55N 40°38' W 074°12'3 8.0
2018-Feb-15 07:30N 40°39' W 074°08'0 0.7
2018-Feb-15 07:00N 40°39' W 074°07'0 0.0
2018-Feb-14 21:40N 40°39' W 074°07'0 2.0
2018-Feb-14 21:30N 40°39' W 074°08'3 6.2
2018-Feb-14 21:00N 40°38' W 074°12'2 3.6
2018-Feb-14 20:30N 40°39' W 074°09'3 6.8
2018-Feb-14 20:00N 40°39' W 074°05'4 7.0
2018-Feb-14 19:30N 40°41' W 074°01'4 7.0
2018-Feb-14 18:58N 40°44' W 073°58'5 3.7
2018-Feb-14 17:38N 40°49' W 073°56'2 0.4
2018-Feb-14 12:01N 40°46' W 073°56'012.0
2018-Feb-14 12:00N 40°46' W 073°56'510.9
2018-Feb-14 11:30N 40°42' W 074°00'5 9.9
2018-Feb-14 11:00N 40°39' W 074°06'  
2018-Feb-11 20:08N 40°39' W 074°07'0 0.1
2018-Feb-11 20:00N 40°39' W 074°07'0 0.0
2018-Feb-11 19:29N 40°39' W 074°07'2 3.1
2018-Feb-11 18:58N 40°40' W 074°09'0 0.0
2018-Feb-11 18:30N 40°40' W 074°09'0 0.0
2018-Feb-11 18:00N 40°40' W 074°09'0 0.0
2018-Feb-11 17:30N 40°40' W 074°09'0 0.0
2018-Feb-11 17:00N 40°40' W 074°09'0 0.0
2018-Feb-11 16:30N 40°40' W 074°09'0 0.0
2018-Feb-11 16:00N 40°40' W 074°09'0 0.0
2018-Feb-11 15:30N 40°40' W 074°09'0 0.0
2018-Feb-11 15:00N 40°40' W 074°09'0 0.0
2018-Feb-11 14:30N 40°40' W 074°09'0 0.0
2018-Feb-11 14:00N 40°40' W 074°09'0 1.0
2018-Feb-11 13:29N 40°39' W 074°09'1 2.7
2018-Feb-11 13:00N 40°39' W 074°07'0 0.1
2018-Feb-11 12:30N 40°39' W 074°07'0 0.1
2018-Feb-11 12:00N 40°39' W 074°07'0 0.0
2018-Feb-11 11:28N 40°39' W 074°07'0 0.0
2018-Feb-11 11:00N 40°39' W 074°07'  
Track history (hours):
 
Tides and Currents Weather Stations Pressure Air Temp Water Temp Dewpoint Dewpoint Depression Visibility Wind Speed Wind Dir Waves Ship Positions

Durham

Owner: KEN'S BOOMING & BOAT SERVICE, INC., BAYONNE, NJ. More information available from US FCC via Universal Licensing System and Coast Guard Vessel Documentation Center.

Last reported at 2018-Feb-19 20:14 UTC. Time now 2018-Feb-19 23:53 UTC.
Position N 40°39' W 074°07'.

Length 18 m.

MMSI: 367444950.

Date/timePositionNaut miles runAvg speedWind from/ knotsBaromVisibWave heightAir tempDewpointWater temp
2018-Feb-19 20:14N 40°39' W 074°07'0 0.0
2018-Feb-19 19:07N 40°39' W 074°07'0 0.0
2018-Feb-19 19:01N 40°39' W 074°07'0 0.0
2018-Feb-19 16:24N 40°39' W 074°07'0 0.0
2018-Feb-17 21:21N 40°39' W 074°07'0 0.0
2018-Feb-17 20:59N 40°39' W 074°07'0 0.0
2018-Feb-17 13:42N 40°39' W 074°07'0 0.0
2018-Feb-17 13:29N 40°39' W 074°07'0 0.0
2018-Feb-17 13:00N 40°39' W 074°07'0 0.0
2018-Feb-17 12:30N 40°39' W 074°07'0 0.0
2018-Feb-16 22:26N 40°39' W 074°07'0 0.0
2018-Feb-16 22:00N 40°39' W 074°07'0 0.0
2018-Feb-16 16:12N 40°39' W 074°07'1 2.9
2018-Feb-16 16:00N 40°39' W 074°06'3 5.6
2018-Feb-16 15:28N 40°37' W 074°03'4 7.7
2018-Feb-16 15:00N 40°34' W 074°00'4 8.0
2018-Feb-16 14:30N 40°34' W 073°55'5 1.6
2018-Feb-16 11:26N 40°35' W 074°02'2 4.4
2018-Feb-16 11:00N 40°37' W 074°03'2 4.7
2018-Feb-16 10:29N 40°39' W 074°04'2 4.7
2018-Feb-16 10:00N 40°39' W 074°07'2 4.4
2018-Feb-16 09:30N 40°39' W 074°10'1 2.5
2018-Feb-16 09:00N 40°38' W 074°12'2 3.9
2018-Feb-16 08:30N 40°39' W 074°09'1 0.1
2018-Feb-15 15:15N 40°39' W 074°07'0 0.0
2018-Feb-15 14:55N 40°39' W 074°07'2 5.3
2018-Feb-15 14:30N 40°41' W 074°09'1 1.0
2018-Feb-15 14:00N 40°40' W 074°08'3 6.6
2018-Feb-15 13:30N 40°38' W 074°12'5 1.1
2018-Feb-15 08:32N 40°33' W 074°14'1 8.6
2018-Feb-15 08:27N 40°33' W 074°13'5 8.8
2018-Feb-15 07:55N 40°38' W 074°12'3 8.0
2018-Feb-15 07:30N 40°39' W 074°08'0 0.7
2018-Feb-15 07:00N 40°39' W 074°07'0 0.0
2018-Feb-14 21:40N 40°39' W 074°07'0 2.0
2018-Feb-14 21:30N 40°39' W 074°08'3 6.2
2018-Feb-14 21:00N 40°38' W 074°12'2 3.6
2018-Feb-14 20:30N 40°39' W 074°09'3 6.8
2018-Feb-14 20:00N 40°39' W 074°05'4 7.0
2018-Feb-14 19:30N 40°41' W 074°01'4 7.0
2018-Feb-14 18:58N 40°44' W 073°58'5 3.7
2018-Feb-14 17:38N 40°49' W 073°56'2 0.4
2018-Feb-14 12:01N 40°46' W 073°56'012.0
2018-Feb-14 12:00N 40°46' W 073°56'510.9
2018-Feb-14 11:30N 40°42' W 074°00'5 9.9
2018-Feb-14 11:00N 40°39' W 074°06'  
2018-Feb-11 20:08N 40°39' W 074°07'0 0.1
2018-Feb-11 20:00N 40°39' W 074°07'0 0.0
2018-Feb-11 19:29N 40°39' W 074°07'2 3.1
2018-Feb-11 18:58N 40°40' W 074°09'0 0.0
2018-Feb-11 18:30N 40°40' W 074°09'0 0.0
2018-Feb-11 18:00N 40°40' W 074°09'0 0.0
2018-Feb-11 17:30N 40°40' W 074°09'0 0.0
2018-Feb-11 17:00N 40°40' W 074°09'0 0.0
2018-Feb-11 16:30N 40°40' W 074°09'0 0.0
2018-Feb-11 16:00N 40°40' W 074°09'0 0.0
2018-Feb-11 15:30N 40°40' W 074°09'0 0.0
2018-Feb-11 15:00N 40°40' W 074°09'0 0.0
2018-Feb-11 14:30N 40°40' W 074°09'0 0.0
2018-Feb-11 14:00N 40°40' W 074°09'0 1.0
2018-Feb-11 13:29N 40°39' W 074°09'1 2.7
2018-Feb-11 13:00N 40°39' W 074°07'0 0.1
2018-Feb-11 12:30N 40°39' W 074°07'0 0.1
2018-Feb-11 12:00N 40°39' W 074°07'0 0.0
2018-Feb-11 11:28N 40°39' W 074°07'0 0.0
2018-Feb-11 11:00N 40°39' W 074°07'  

Dump ship's entire track history